Time;durP1;ratioP1;P1;durP2;ratioP2;P2;SDS_P1;SDS_P2;PMS_P1;PMS_P2;Temp;Humidity;BMP_temperature;BMP_pressure;BME280_temperature;BME280_humidity;BME280_pressure;Samples;Min_cycle;Max_cycle;Signal;HPM_P1;HPM_P2
2022/05/18 00:00:48;;;;;;;12.93;6.15;;;;;;;;;;5060302;28;20025;-62
2022/05/18 00:03:16;;;;;;;12.45;6.40;;;;;;;;;;5061026;28;20099;-62
2022/05/18 00:05:43;;;;;;;13.15;6.25;;;;;;;;;;5062770;28;20746;-62
2022/05/18 00:08:10;;;;;;;19.77;6.75;;;;;;;;;;5069568;28;20027;-62
2022/05/18 00:10:37;;;;;;;12.60;6.47;;;;;;;;;;5054202;28;20502;-62
2022/05/18 00:13:04;;;;;;;15.48;6.65;;;;;;;;;;5053403;28;20028;-62
2022/05/18 00:15:31;;;;;;;16.65;6.63;;;;;;;;;;5062682;28;20024;-62
2022/05/18 00:17:57;;;;;;;16.00;6.40;;;;;;;;;;5062318;28;20147;-62
2022/05/18 00:20:23;;;;;;;14.18;5.97;;;;;;;;;;5057254;28;20535;-63
2022/05/18 00:22:56;;;;;;;22.50;7.45;;;;;;;;;;5060856;28;20110;-62
2022/05/18 00:25:23;;;;;;;;;;;;;;;;;;5055258;28;20033;-62
2022/05/18 00:27:49;;;;;;;19.70;7.38;;;;;;;;;;5057784;28;19917;-62
2022/05/18 00:30:17;;;;;;;13.50;6.50;;;;;;;;;;5061893;28;20526;-55
2022/05/18 00:32:42;;;;;;;15.65;7.13;;;;;;;;;;5065793;28;20044;-62
2022/05/18 00:35:09;;;;;;;19.50;7.22;;;;;;;;;;5069097;28;20035;-62
2022/05/18 00:37:35;;;;;;;19.17;6.80;;;;;;;;;;5061784;28;20035;-59
2022/05/18 00:40:01;;;;;;;24.65;7.20;;;;;;;;;;5064841;28;20036;-62
2022/05/18 00:42:28;;;;;;;18.83;6.82;;;;;;;;;;5061096;28;20033;-62
2022/05/18 00:44:55;;;;;;;14.70;6.35;;;;;;;;;;5057837;28;20032;-62
2022/05/18 00:47:20;;;;;;;17.95;7.22;;;;;;;;;;5058064;28;20051;-62
2022/05/18 00:49:52;;;;;;;24.52;7.32;;;;;;;;;;5054663;28;20151;-62
2022/05/18 00:52:23;;;;;;;18.92;7.15;;;;;;;;;;5056987;28;20946;-62
2022/05/18 00:54:50;;;;;;;18.10;6.85;;;;;;;;;;5061105;28;20174;-62
2022/05/18 00:57:44;;;;;;;16.23;6.70;;;;;;;;;;5062942;28;20039;-62
2022/05/18 01:00:13;;;;;;;10.95;6.85;;;;;;;;;;5057984;28;20516;-62
2022/05/18 01:02:45;;;;;;;11.88;6.53;;;;;;;;;;5064789;28;20028;-62
2022/05/18 01:05:15;;;;;;;19.30;7.07;;;;;;;;;;5059014;28;20074;-62
2022/05/18 01:07:48;;;;;;;19.83;6.68;;;;;;;;;;5065830;28;20052;-62
2022/05/18 01:10:14;;;;;;;14.63;6.57;;;;;;;;;;5059866;28;20040;-62
2022/05/18 01:12:40;;;;;;;16.17;7.63;;;;;;;;;;5058251;28;20151;-62
2022/05/18 01:15:10;;;;;;;16.60;7.32;;;;;;;;;;5060293;28;20501;-62
2022/05/18 01:17:38;;;;;;;19.23;7.07;;;;;;;;;;5053453;28;20175;-61
2022/05/18 01:20:08;;;;;;;12.93;6.82;;;;;;;;;;5059355;28;20036;-62
2022/05/18 01:22:52;;;;;;;15.40;7.10;;;;;;;;;;5055708;28;20040;-61
2022/05/18 01:25:31;;;;;;;14.73;6.45;;;;;;;;;;5060159;28;20033;-62
2022/05/18 01:27:59;;;;;;;16.95;7.25;;;;;;;;;;5055078;28;20070;-61
2022/05/18 01:30:26;;;;;;;9.82;6.55;;;;;;;;;;5067706;28;20032;-61
2022/05/18 01:32:54;;;;;;;20.83;6.70;;;;;;;;;;5058181;28;20047;-62
2022/05/18 01:35:24;;;;;;;9.57;6.10;;;;;;;;;;5061079;28;20482;-62
2022/05/18 01:37:50;;;;;;;14.68;6.80;;;;;;;;;;5056249;28;20041;-62
2022/05/18 01:40:34;;;;;;;16.60;6.40;;;;;;;;;;5062234;28;20393;-61
2022/05/18 01:43:24;;;;;;;18.17;7.57;;;;;;;;;;5058762;28;20032;-61
2022/05/18 01:45:56;;;;;;;18.33;7.75;;;;;;;;;;5060974;28;20043;-61
2022/05/18 01:48:26;;;;;;;13.52;6.80;;;;;;;;;;5060404;28;20028;-62
2022/05/18 01:50:52;;;;;;;12.68;7.43;;;;;;;;;;5059216;28;20644;-61
2022/05/18 01:53:19;;;;;;;12.98;7.20;;;;;;;;;;5053508;28;20079;-62
2022/05/18 01:55:46;;;;;;;12.07;6.80;;;;;;;;;;5057477;28;20101;-62
2022/05/18 01:58:13;;;;;;;20.42;7.53;;;;;;;;;;5055696;28;20075;-61
2022/05/18 02:00:40;;;;;;;13.65;6.45;;;;;;;;;;5061434;28;20080;-61
2022/05/18 02:03:07;;;;;;;12.30;7.50;;;;;;;;;;5060958;28;20423;-61
2022/05/18 02:05:33;;;;;;;17.88;7.05;;;;;;;;;;5058223;28;20059;-62
2022/05/18 02:07:58;;;;;;;14.63;6.82;;;;;;;;;;5056953;28;20064;-62
2022/05/18 02:10:25;;;;;;;31.50;9.00;;;;;;;;;;5063592;28;20405;-61
2022/05/18 02:12:51;;;;;;;15.23;8.00;;;;;;;;;;5058731;28;20040;-61
2022/05/18 02:15:18;;;;;;;14.40;7.07;;;;;;;;;;5058569;28;20110;-61
2022/05/18 02:17:44;;;;;;;19.60;6.75;;;;;;;;;;5056288;28;20044;-61
2022/05/18 02:20:11;;;;;;;13.18;6.70;;;;;;;;;;5055636;28;20029;-61
2022/05/18 02:22:37;;;;;;;15.00;6.80;;;;;;;;;;5059239;28;20083;-61
2022/05/18 02:25:04;;;;;;;17.55;7.00;;;;;;;;;;5060066;28;20102;-61
2022/05/18 02:27:30;;;;;;;12.80;7.07;;;;;;;;;;5065069;28;20028;-61
2022/05/18 02:29:56;;;;;;;16.92;6.93;;;;;;;;;;5055893;28;20689;-61
2022/05/18 02:32:22;;;;;;;20.83;7.40;;;;;;;;;;5059195;28;20052;-61
2022/05/18 02:34:48;;;;;;;12.65;6.80;;;;;;;;;;5062941;28;20041;-61
2022/05/18 02:37:14;;;;;;;16.33;7.40;;;;;;;;;;5063127;28;20029;-61
2022/05/18 02:39:40;;;;;;;14.13;7.32;;;;;;;;;;5054981;28;20064;-61
2022/05/18 02:42:06;;;;;;;13.60;6.20;;;;;;;;;;5065072;28;20165;-61
2022/05/18 02:44:32;;;;;;;14.13;7.00;;;;;;;;;;5059499;28;20111;-61
2022/05/18 02:46:59;;;;;;;17.70;7.28;;;;;;;;;;5067993;28;20079;-61
2022/05/18 02:49:26;;;;;;;13.10;6.70;;;;;;;;;;5058421;28;20056;-61
2022/05/18 02:51:52;;;;;;;14.18;6.78;;;;;;;;;;5061126;28;20467;-61
2022/05/18 02:57:04;;;;;;;16.75;6.38;;;;;;;;;;5065011;28;20114;-62
2022/05/18 02:59:30;;;;;;;11.32;5.95;;;;;;;;;;5062558;28;20028;-61
2022/05/18 03:01:56;;;;;;;12.40;7.25;;;;;;;;;;5064969;28;20511;-61
2022/05/18 03:04:22;;;;;;;12.80;6.78;;;;;;;;;;5067349;28;20032;-61
2022/05/18 03:06:48;;;;;;;13.25;6.65;;;;;;;;;;5061032;28;20086;-61
2022/05/18 03:09:14;;;;;;;9.38;6.13;;;;;;;;;;5067344;28;20177;-61
2022/05/18 03:11:40;;;;;;;11.98;6.20;;;;;;;;;;5062179;28;20021;-61
2022/05/18 03:14:06;;;;;;;11.13;6.07;;;;;;;;;;5074348;28;20028;-61
2022/05/18 03:16:32;;;;;;;16.35;7.57;;;;;;;;;;5057243;28;20041;-61
2022/05/18 03:18:58;;;;;;;14.00;6.88;;;;;;;;;;5060447;28;20040;-61
2022/05/18 03:24:10;;;;;;;12.50;6.45;;;;;;;;;;5060290;28;20039;-61
2022/05/18 03:26:37;;;;;;;17.55;6.47;;;;;;;;;;5064506;28;20123;-61
2022/05/18 03:29:02;;;;;;;16.60;7.07;;;;;;;;;;5057796;28;20024;-61
2022/05/18 03:31:29;;;;;;;14.38;6.80;;;;;;;;;;5068395;28;20037;-61
2022/05/18 03:33:55;;;;;;;19.70;7.28;;;;;;;;;;5064073;28;20020;-62
2022/05/18 03:36:21;;;;;;;12.27;6.47;;;;;;;;;;5065998;28;20155;-62
2022/05/18 03:38:48;;;;;;;14.82;6.57;;;;;;;;;;5061836;28;20062;-61
2022/05/18 03:41:16;;;;;;;16.63;6.45;;;;;;;;;;5068997;28;20069;-61
2022/05/18 03:43:42;;;;;;;15.75;7.03;;;;;;;;;;5057837;28;20032;-61
2022/05/18 03:46:09;;;;;;;15.07;6.90;;;;;;;;;;5061085;28;20036;-61
2022/05/18 03:48:35;;;;;;;22.67;7.35;;;;;;;;;;5059082;28;20024;-61
2022/05/18 03:51:02;;;;;;;14.88;7.20;;;;;;;;;;5056168;28;20036;-61
2022/05/18 03:53:29;;;;;;;18.60;7.15;;;;;;;;;;5057387;28;20780;-61
2022/05/18 03:55:55;;;;;;;17.63;7.22;;;;;;;;;;5027709;28;20068;-61
2022/05/18 03:58:21;;;;;;;10.20;6.55;;;;;;;;;;5012385;28;20088;-61
2022/05/18 04:00:49;;;;;;;16.40;6.75;;;;;;;;;;5022016;28;20025;-61
2022/05/18 04:03:16;;;;;;;12.98;6.35;;;;;;;;;;5021091;28;20029;-61
2022/05/18 04:05:42;;;;;;;20.73;6.68;;;;;;;;;;5025367;28;20041;-61
2022/05/18 04:08:10;;;;;;;10.35;6.35;;;;;;;;;;5023233;28;20040;-61
2022/05/18 04:10:38;;;;;;;19.40;7.20;;;;;;;;;;5022257;28;20125;-61
2022/05/18 04:13:06;;;;;;;13.73;7.18;;;;;;;;;;5020718;28;20156;-61
2022/05/18 04:15:31;;;;;;;11.80;6.53;;;;;;;;;;5020303;28;20025;-61
2022/05/18 04:17:59;;;;;;;23.60;7.03;;;;;;;;;;5016236;28;20048;-61
2022/05/18 04:20:25;;;;;;;17.67;7.53;;;;;;;;;;5020557;28;20025;-61
2022/05/18 04:22:51;;;;;;;23.15;7.55;;;;;;;;;;5020976;28;20033;-61
2022/05/18 04:25:23;;;;;;;15.50;7.32;;;;;;;;;;5022465;28;20070;-61
2022/05/18 04:27:49;;;;;;;15.88;7.45;;;;;;;;;;5029602;28;20029;-61
2022/05/18 04:30:17;;;;;;;14.77;7.07;;;;;;;;;;5021588;28;20057;-61
2022/05/18 04:32:43;;;;;;;23.63;6.30;;;;;;;;;;5025735;28;20112;-61
2022/05/18 04:35:10;;;;;;;16.23;6.70;;;;;;;;;;5018003;28;20059;-61
2022/05/18 04:37:37;;;;;;;17.98;7.43;;;;;;;;;;5014685;28;20057;-60
2022/05/18 04:40:04;;;;;;;13.70;6.63;;;;;;;;;;5024817;28;20038;-63
2022/05/18 04:42:30;;;;;;;18.92;6.85;;;;;;;;;;5019638;28;20061;-61
2022/05/18 04:44:56;;;;;;;14.27;7.18;;;;;;;;;;5021785;28;20061;-62
2022/05/18 04:47:23;;;;;;;11.80;6.47;;;;;;;;;;5020465;28;20033;-60
2022/05/18 04:49:50;;;;;;;15.57;6.43;;;;;;;;;;5019157;28;20042;-61
2022/05/18 04:52:17;;;;;;;13.55;7.10;;;;;;;;;;5020186;28;20029;-63
2022/05/18 04:54:43;;;;;;;12.55;6.97;;;;;;;;;;5041976;28;20049;-61
2022/05/18 04:57:09;;;;;;;16.75;7.47;;;;;;;;;;5065146;28;20059;-63
2022/05/18 04:59:35;;;;;;;13.95;6.38;;;;;;;;;;5057739;28;20425;-61
2022/05/18 05:02:00;;;;;;;15.13;6.32;;;;;;;;;;5058786;28;20033;-61
2022/05/18 05:04:26;;;;;;;16.17;7.00;;;;;;;;;;5055507;28;20032;-61
2022/05/18 05:06:52;;;;;;;11.60;6.93;;;;;;;;;;5067000;28;20031;-63
2022/05/18 05:09:18;;;;;;;16.30;6.50;;;;;;;;;;5060908;28;20115;-61
2022/05/18 05:11:43;;;;;;;11.25;6.68;;;;;;;;;;5057080;28;20482;-60
2022/05/18 05:14:09;;;;;;;14.50;6.22;;;;;;;;;;5055941;28;20033;-60
2022/05/18 05:16:34;;;;;;;11.45;6.70;;;;;;;;;;5061549;28;20423;-60
2022/05/18 05:19:00;;;;;;;16.20;6.32;;;;;;;;;;5068778;28;20469;-60
2022/05/18 05:21:26;;;;;;;15.65;6.93;;;;;;;;;;5075195;28;20032;-60
2022/05/18 05:23:52;;;;;;;24.02;6.78;;;;;;;;;;5058259;28;20037;-60
2022/05/18 05:26:18;;;;;;;24.40;6.75;;;;;;;;;;5068692;28;20031;-60
2022/05/18 05:28:43;;;;;;;13.63;6.10;;;;;;;;;;5062404;28;20123;-60
2022/05/18 05:31:11;;;;;;;20.90;6.20;;;;;;;;;;5042871;28;20036;-61
2022/05/18 05:33:39;;;;;;;14.98;7.00;;;;;;;;;;5061015;28;20025;-60
2022/05/18 05:36:06;;;;;;;13.93;6.50;;;;;;;;;;5063967;28;20032;-60
2022/05/18 05:38:31;;;;;;;18.27;6.78;;;;;;;;;;5059360;28;20055;-60
2022/05/18 05:41:00;;;;;;;13.30;6.47;;;;;;;;;;5062551;28;20021;-60
2022/05/18 05:43:26;;;;;;;23.38;6.93;;;;;;;;;;5060950;28;20716;-60
2022/05/18 05:45:59;;;;;;;18.85;6.53;;;;;;;;;;5070445;28;20469;-61
2022/05/18 05:48:26;;;;;;;16.83;6.35;;;;;;;;;;5054028;28;20040;-60
2022/05/18 05:50:52;;;;;;;19.58;6.55;;;;;;;;;;5059687;28;20036;-60
2022/05/18 05:53:18;;;;;;;11.80;6.18;;;;;;;;;;5060758;28;20076;-60
2022/05/18 05:55:44;;;;;;;18.90;5.80;;;;;;;;;;5057278;28;20688;-60
2022/05/18 05:58:10;;;;;;;16.25;5.97;;;;;;;;;;5060748;28;20027;-60
2022/05/18 06:00:36;;;;;;;15.43;5.88;;;;;;;;;;5058842;28;20054;-61
2022/05/18 06:03:03;;;;;;;16.75;6.28;;;;;;;;;;5055687;28;20020;-60
2022/05/18 06:05:29;;;;;;;15.48;6.35;;;;;;;;;;5062891;28;20500;-60
2022/05/18 06:07:55;;;;;;;7.97;5.53;;;;;;;;;;5054414;28;20432;-60
2022/05/18 06:10:21;;;;;;;12.38;6.97;;;;;;;;;;5060120;28;20029;-60
2022/05/18 06:12:47;;;;;;;18.00;6.50;;;;;;;;;;5065497;28;20021;-60
2022/05/18 06:15:13;;;;;;;28.85;6.20;;;;;;;;;;5065122;28;20080;-60
2022/05/18 06:17:38;;;;;;;17.13;6.50;;;;;;;;;;5054921;28;20065;-59
2022/05/18 06:20:05;;;;;;;16.30;5.72;;;;;;;;;;5057883;28;20050;-60
2022/05/18 06:22:31;;;;;;;24.45;7.13;;;;;;;;;;5053167;28;20541;-60
2022/05/18 06:24:57;;;;;;;23.00;6.90;;;;;;;;;;5058943;28;20127;-60
2022/05/18 06:27:23;;;;;;;126.13;12.27;;;;;;;;;;5062453;28;20468;-60
2022/05/18 06:29:48;;;;;;;10.20;6.03;;;;;;;;;;5053686;28;20574;-60
2022/05/18 06:32:15;;;;;;;26.63;7.30;;;;;;;;;;5057841;28;20048;-60
2022/05/18 06:34:41;;;;;;;15.88;6.70;;;;;;;;;;5058165;28;20370;-60
2022/05/18 06:37:07;;;;;;;21.70;8.70;;;;;;;;;;5053865;28;20051;-60
2022/05/18 06:39:33;;;;;;;15.15;7.30;;;;;;;;;;5063306;28;20040;-60
2022/05/18 06:41:59;;;;;;;31.88;8.35;;;;;;;;;;5057670;28;21883;-61
2022/05/18 06:44:26;;;;;;;18.00;6.20;;;;;;;;;;5054263;28;20157;-60
2022/05/18 06:46:52;;;;;;;24.80;8.02;;;;;;;;;;5054739;28;20032;-60
2022/05/18 06:49:19;;;;;;;13.60;5.82;;;;;;;;;;5057213;28;20060;-60
2022/05/18 06:51:46;;;;;;;27.85;6.65;;;;;;;;;;5053532;28;20033;-60
2022/05/18 06:54:13;;;;;;;22.52;7.20;;;;;;;;;;5067502;28;20043;-61
2022/05/18 06:56:42;;;;;;;30.98;7.40;;;;;;;;;;5061629;28;20036;-60
2022/05/18 06:59:09;;;;;;;16.88;6.85;;;;;;;;;;5051579;28;20085;-60
2022/05/18 07:01:36;;;;;;;22.50;6.72;;;;;;;;;;5045562;28;20051;-60
2022/05/18 07:04:03;;;;;;;19.85;7.28;;;;;;;;;;5058041;28;20087;-60
2022/05/18 07:06:35;;;;;;;25.85;7.03;;;;;;;;;;5058029;28;20021;-60
2022/05/18 07:09:04;;;;;;;12.18;5.97;;;;;;;;;;5061530;28;20033;-60
2022/05/18 07:11:29;;;;;;;17.98;6.60;;;;;;;;;;5065325;28;20059;-60
2022/05/18 07:13:58;;;;;;;15.77;6.47;;;;;;;;;;5054784;28;20835;-60
2022/05/18 07:16:26;;;;;;;22.27;6.07;;;;;;;;;;5055121;28;20028;-60
2022/05/18 07:18:53;;;;;;;20.85;7.50;;;;;;;;;;5058272;28;20029;-60
2022/05/18 07:21:20;;;;;;;21.65;6.35;;;;;;;;;;5060756;28;20085;-61
2022/05/18 07:23:47;;;;;;;31.50;6.85;;;;;;;;;;5056367;28;20028;-61
2022/05/18 07:26:14;;;;;;;15.45;6.63;;;;;;;;;;5064280;28;20029;-60
2022/05/18 07:28:40;;;;;;;25.77;7.50;;;;;;;;;;5062709;28;20496;-61
2022/05/18 07:31:07;;;;;;;18.10;6.10;;;;;;;;;;5056297;28;20024;-61
2022/05/18 07:33:33;;;;;;;24.33;6.80;;;;;;;;;;5062517;28;20529;-61
2022/05/18 07:35:59;;;;;;;21.63;5.93;;;;;;;;;;5063646;28;20060;-61
2022/05/18 07:38:27;;;;;;;20.55;6.68;;;;;;;;;;5069576;28;20050;-61
2022/05/18 07:40:53;;;;;;;16.42;6.20;;;;;;;;;;5058693;28;20490;-60
2022/05/18 07:43:19;;;;;;;20.63;6.75;;;;;;;;;;5066268;28;20063;-61
2022/05/18 07:45:50;;;;;;;21.55;7.72;;;;;;;;;;5066144;28;20028;-61
2022/05/18 07:48:17;;;;;;;11.98;5.60;;;;;;;;;;5055005;28;20025;-60
2022/05/18 07:50:43;;;;;;;19.70;6.40;;;;;;;;;;5059338;28;20033;-61
2022/05/18 07:53:09;;;;;;;19.00;5.75;;;;;;;;;;5061927;28;20391;-61
2022/05/18 07:55:35;;;;;;;19.65;6.10;;;;;;;;;;5058388;28;20055;-61
2022/05/18 07:58:09;;;;;;;17.17;6.05;;;;;;;;;;5066915;28;20099;-61
2022/05/18 08:00:35;;;;;;;19.65;6.97;;;;;;;;;;5063813;28;20035;-61
2022/05/18 08:03:02;;;;;;;20.13;6.75;;;;;;;;;;5060554;28;20504;-61
2022/05/18 08:05:30;;;;;;;18.55;6.80;;;;;;;;;;5064121;28;20046;-62
2022/05/18 08:07:56;;;;;;;22.88;7.57;;;;;;;;;;5056147;28;20033;-61
2022/05/18 08:15:55;;;;;;;23.95;7.55;;;;;;;;;;5052810;28;20037;-61
2022/05/18 08:18:21;;;;;;;21.70;7.53;;;;;;;;;;5058542;28;20040;-61
2022/05/18 08:20:48;;;;;;;21.33;8.35;;;;;;;;;;5071383;28;20031;-61
2022/05/18 08:23:15;;;;;;;20.42;7.57;;;;;;;;;;5064343;28;20037;-61
2022/05/18 08:25:43;;;;;;;17.55;7.60;;;;;;;;;;5070349;28;20024;-61
2022/05/18 08:28:09;;;;;;;20.05;7.53;;;;;;;;;;5060539;28;20066;-61
2022/05/18 08:30:35;;;;;;;18.25;7.22;;;;;;;;;;5056331;28;20047;-61
2022/05/18 08:33:02;;;;;;;15.90;6.82;;;;;;;;;;5066199;28;20492;-61
2022/05/18 08:35:29;;;;;;;18.35;7.15;;;;;;;;;;5056834;28;20128;-61
2022/05/18 08:37:56;;;;;;;18.30;6.63;;;;;;;;;;5059549;28;20032;-62
2022/05/18 08:41:01;;;;;;;26.80;7.55;;;;;;;;;;5061459;28;20045;-61
2022/05/18 08:43:33;;;;;;;24.10;6.78;;;;;;;;;;5048542;28;20037;-61
2022/05/18 08:46:11;;;;;;;17.30;7.05;;;;;;;;;;5063953;28;20611;-62
2022/05/18 08:48:46;;;;;;;27.02;7.00;;;;;;;;;;5060170;28;20033;-62
2022/05/18 08:51:27;;;;;;;23.55;7.30;;;;;;;;;;5064041;28;20074;-61
2022/05/18 08:54:05;;;;;;;17.25;6.03;;;;;;;;;;5051289;28;20466;-62
2022/05/18 08:56:39;;;;;;;17.80;6.78;;;;;;;;;;5059866;28;20032;-61
2022/05/18 08:59:14;;;;;;;24.05;6.72;;;;;;;;;;5062067;28;20052;-61
2022/05/18 09:01:46;;;;;;;16.08;5.80;;;;;;;;;;5060034;28;20052;-62
2022/05/18 09:04:11;;;;;;;20.00;6.03;;;;;;;;;;5060271;28;20032;-62
2022/05/18 09:07:00;;;;;;;21.63;6.88;;;;;;;;;;5059462;28;20036;-62
2022/05/18 09:12:19;;;;;;;14.93;6.43;;;;;;;;;;5062184;28;20082;-62
2022/05/18 09:14:45;;;;;;;22.23;6.35;;;;;;;;;;5056482;28;20553;-61
2022/05/18 09:17:24;;;;;;;16.17;5.88;;;;;;;;;;5068457;28;20066;-62
2022/05/18 09:19:59;;;;;;;19.05;6.22;;;;;;;;;;5058053;28;20501;-62
2022/05/18 09:22:40;;;;;;;21.73;6.43;;;;;;;;;;5070234;28;20040;-62
2022/05/18 09:25:20;;;;;;;18.23;6.38;;;;;;;;;;5060406;28;20119;-62
2022/05/18 09:28:24;;;;;;;18.23;6.32;;;;;;;;;;5064113;28;20544;-62
2022/05/18 09:30:56;;;;;;;21.40;6.97;;;;;;;;;;5053987;28;20107;-63
2022/05/18 09:33:21;;;;;;;21.48;6.93;;;;;;;;;;5065511;28;20056;-62
2022/05/18 09:36:22;;;;;;;13.25;5.72;;;;;;;;;;5061337;28;20749;-62
2022/05/18 09:38:56;;;;;;;21.88;5.57;;;;;;;;;;5061322;28;20032;-62
2022/05/18 09:41:26;;;;;;;27.52;6.65;;;;;;;;;;5059535;28;20032;-62
2022/05/18 09:44:26;;;;;;;25.00;6.47;;;;;;;;;;5052543;28;20035;-62
2022/05/18 09:46:52;;;;;;;20.05;7.00;;;;;;;;;;4962293;28;20053;-62
2022/05/18 09:49:22;;;;;;;16.90;6.35;;;;;;;;;;4963087;28;20211;-62
2022/05/18 09:51:48;;;;;;;27.95;6.70;;;;;;;;;;4965827;28;20039;-62
2022/05/18 09:54:14;;;;;;;17.70;6.70;;;;;;;;;;4958406;28;20130;-63
2022/05/18 09:57:11;;;;;;;24.70;6.32;;;;;;;;;;4964203;28;20043;-62
2022/05/18 09:59:42;;;;;;;22.50;6.03;;;;;;;;;;4942814;28;20039;-62
2022/05/18 10:07:52;;;;;;;19.38;6.10;;;;;;;;;;4940729;28;20114;-62
2022/05/18 10:10:29;;;;;;;16.95;5.70;;;;;;;;;;4940746;28;20070;-62
2022/05/18 10:12:54;;;;;;;19.85;5.50;;;;;;;;;;4943537;28;20086;-62
2022/05/18 10:15:38;;;;;;;21.38;6.20;;;;;;;;;;4929435;29;20035;-62
2022/05/18 10:18:11;;;;;;;27.00;6.13;;;;;;;;;;4945339;28;20054;-62
2022/05/18 10:20:38;;;;;;;15.02;6.05;;;;;;;;;;4943564;28;20054;-63
2022/05/18 10:23:05;;;;;;;20.80;6.03;;;;;;;;;;4965484;28;21316;-63
2022/05/18 10:25:42;;;;;;;23.92;6.30;;;;;;;;;;4998496;28;20026;-62
2022/05/18 10:28:26;;;;;;;16.05;6.18;;;;;;;;;;4993273;28;20026;-63
2022/05/18 10:31:02;;;;;;;20.30;6.00;;;;;;;;;;4995408;28;20048;-62
2022/05/18 10:33:36;;;;;;;15.50;6.07;;;;;;;;;;4978126;28;20430;-63
2022/05/18 10:36:48;;;;;;;24.35;5.57;;;;;;;;;;5014189;28;20432;-62
2022/05/18 10:39:35;;;;;;;26.60;5.20;;;;;;;;;;4999278;28;20219;-62
2022/05/18 10:42:09;;;;;;;14.65;5.75;;;;;;;;;;4998928;28;20097;-63
2022/05/18 10:44:36;;;;;;;18.20;6.32;;;;;;;;;;4997755;28;20038;-63
2022/05/18 10:47:26;;;;;;;15.52;5.03;;;;;;;;;;4981001;28;20034;-63
2022/05/18 10:50:21;;;;;;;14.55;5.32;;;;;;;;;;4998819;28;20168;-62
2022/05/18 10:52:48;;;;;;;17.73;5.95;;;;;;;;;;4988286;28;20042;-63
2022/05/18 10:55:16;;;;;;;17.38;5.30;;;;;;;;;;5000493;28;20034;-63
2022/05/18 10:58:04;;;;;;;19.40;5.25;;;;;;;;;;4997861;28;20132;-62
2022/05/18 11:00:44;;;;;;;15.65;5.35;;;;;;;;;;5003454;28;20572;-62
2022/05/18 11:03:23;;;;;;;16.92;5.93;;;;;;;;;;5000793;28;20026;-63
2022/05/18 11:05:54;;;;;;;16.08;5.22;;;;;;;;;;4999767;28;20073;-62
2022/05/18 11:08:23;;;;;;;18.02;5.97;;;;;;;;;;4989366;28;20036;-62
2022/05/18 11:10:49;;;;;;;15.18;5.43;;;;;;;;;;5002074;28;20113;-62
2022/05/18 11:13:21;;;;;;;11.50;5.47;;;;;;;;;;5025122;28;20036;-62
2022/05/18 11:16:09;;;;;;;9.10;5.22;;;;;;;;;;5067561;28;20032;-61
2022/05/18 11:18:48;;;;;;;16.92;5.65;;;;;;;;;;5061964;28;20033;-62
2022/05/18 11:21:26;;;;;;;21.27;5.18;;;;;;;;;;5064317;28;20119;-63
2022/05/18 11:24:19;;;;;;;16.42;5.47;;;;;;;;;;5057708;28;20158;-62
2022/05/18 11:27:01;;;;;;;19.92;5.65;;;;;;;;;;5064819;28;20043;-62
2022/05/18 11:29:58;;;;;;;15.90;5.70;;;;;;;;;;5066154;28;20388;-63
2022/05/18 11:32:44;;;;;;;19.27;5.90;;;;;;;;;;5050994;28;20074;-62
2022/05/18 11:35:40;;;;;;;15.05;5.63;;;;;;;;;;5065046;28;20059;-63
2022/05/18 11:38:33;;;;;;;13.43;5.40;;;;;;;;;;5056463;28;20036;-62
2022/05/18 11:41:23;;;;;;;22.15;5.40;;;;;;;;;;5048260;28;20040;-63
2022/05/18 11:44:04;;;;;;;17.65;5.15;;;;;;;;;;5056656;28;20041;-63
2022/05/18 11:46:39;;;;;;;44.67;5.75;;;;;;;;;;5053085;28;20111;-63
2022/05/18 11:49:27;;;;;;;10.30;5.25;;;;;;;;;;5053175;28;20131;-63
2022/05/18 11:52:14;;;;;;;26.67;5.95;;;;;;;;;;5060992;28;20025;-63
2022/05/18 11:55:17;;;;;;;12.90;5.50;;;;;;;;;;5060539;28;20818;-63
2022/05/18 11:58:09;;;;;;;22.20;6.00;;;;;;;;;;5061240;28;20040;-64
2022/05/18 12:00:51;;;;;;;25.20;6.53;;;;;;;;;;5068975;28;20035;-63
2022/05/18 12:03:25;;;;;;;;;;;;;;;;;;5061262;28;21845;-63
2022/05/18 12:06:29;;;;;;;21.08;5.90;;;;;;;;;;5066455;28;19916;-63
2022/05/18 12:09:05;;;;;;;24.08;6.68;;;;;;;;;;5066455;28;20056;-63
2022/05/18 12:12:00;;;;;;;20.88;6.28;;;;;;;;;;5061943;28;20031;-63
2022/05/18 12:15:03;;;;;;;10.70;5.85;;;;;;;;;;5069483;28;20028;-64
2022/05/18 12:17:45;;;;;;;27.83;6.88;;;;;;;;;;5061488;28;20037;-63
2022/05/18 12:20:24;;;;;;;14.68;5.65;;;;;;;;;;5054305;28;20044;-63
2022/05/18 12:22:53;;;;;;;13.38;5.57;;;;;;;;;;5056024;28;20044;-63
2022/05/18 12:25:22;;;;;;;19.52;5.93;;;;;;;;;;5055470;28;20475;-62
2022/05/18 12:27:51;;;;;;;17.15;5.72;;;;;;;;;;5055374;28;20491;-63
2022/05/18 12:30:19;;;;;;;21.35;6.45;;;;;;;;;;5062020;28;20067;-58
2022/05/18 12:32:47;;;;;;;18.27;5.72;;;;;;;;;;5065082;28;20369;-63
2022/05/18 12:35:26;;;;;;;23.08;5.80;;;;;;;;;;5056145;28;20025;-63
2022/05/18 12:38:30;;;;;;;20.85;5.97;;;;;;;;;;5063975;28;20040;-63
2022/05/18 12:40:55;;;;;;;17.80;5.78;;;;;;;;;;4996408;28;20088;-63
2022/05/18 12:43:30;;;;;;;17.23;5.90;;;;;;;;;;4993695;28;20515;-63
2022/05/18 12:46:03;;;;;;;21.63;6.95;;;;;;;;;;5002739;28;20057;-63
2022/05/18 12:48:29;;;;;;;17.25;6.55;;;;;;;;;;4997589;28;20522;-62
2022/05/18 12:51:08;;;;;;;20.33;6.07;;;;;;;;;;4991278;28;20185;-63
2022/05/18 12:53:50;;;;;;;26.00;7.40;;;;;;;;;;4996083;28;20088;-63
2022/05/18 12:56:24;;;;;;;16.35;5.97;;;;;;;;;;4997291;28;20030;-63
2022/05/18 12:58:55;;;;;;;38.53;5.80;;;;;;;;;;5000811;28;20117;-63
2022/05/18 13:01:22;;;;;;;23.38;7.35;;;;;;;;;;4999711;28;20273;-63
2022/05/18 13:04:25;;;;;;;20.80;6.40;;;;;;;;;;4994756;28;20598;-62
2022/05/18 13:06:56;;;;;;;24.65;5.97;;;;;;;;;;5002480;28;20080;-63
2022/05/18 13:09:25;;;;;;;23.00;6.65;;;;;;;;;;4998098;28;20099;-63
2022/05/18 13:11:54;;;;;;;22.50;6.53;;;;;;;;;;4994077;28;20042;-63
2022/05/18 13:14:34;;;;;;;25.40;6.65;;;;;;;;;;4999842;28;20426;-63
2022/05/18 13:17:00;;;;;;;15.57;6.47;;;;;;;;;;5011423;28;20385;-63
2022/05/18 13:19:29;;;;;;;18.05;6.30;;;;;;;;;;5057528;28;20035;-63
2022/05/18 13:22:16;;;;;;;23.45;6.43;;;;;;;;;;5058857;28;20021;-62
2022/05/18 13:24:51;;;;;;;20.63;6.30;;;;;;;;;;5049608;28;20052;-63
2022/05/18 13:27:38;;;;;;;13.75;6.22;;;;;;;;;;5067899;28;20564;-62
2022/05/18 13:30:10;;;;;;;25.85;6.25;;;;;;;;;;5056912;28;20040;-63
2022/05/18 13:32:37;;;;;;;22.27;6.78;;;;;;;;;;5055498;28;20028;-63
2022/05/18 13:35:10;;;;;;;18.08;6.55;;;;;;;;;;5057378;28;20028;-62
2022/05/18 13:37:36;;;;;;;17.85;6.78;;;;;;;;;;5058923;28;20033;-64
2022/05/18 13:40:02;;;;;;;33.05;6.35;;;;;;;;;;5059408;28;20029;-63
2022/05/18 13:42:30;;;;;;;15.98;6.80;;;;;;;;;;5062307;28;20032;-62
2022/05/18 13:45:00;;;;;;;21.77;6.70;;;;;;;;;;5044348;28;20130;-62
2022/05/18 13:47:44;;;;;;;20.73;6.80;;;;;;;;;;5056729;28;20106;-62
2022/05/18 13:50:24;;;;;;;22.48;6.97;;;;;;;;;;5056325;28;20036;-63
2022/05/18 13:52:51;;;;;;;21.55;6.50;;;;;;;;;;5060839;28;20025;-63
2022/05/18 13:55:21;;;;;;;18.70;6.25;;;;;;;;;;5052330;28;20040;-62
2022/05/18 13:57:52;;;;;;;26.70;7.15;;;;;;;;;;5063977;28;20044;-62
2022/05/18 14:00:25;;;;;;;17.60;6.68;;;;;;;;;;5059742;28;20039;-62
2022/05/18 14:02:55;;;;;;;17.85;6.65;;;;;;;;;;5064152;28;20029;-62
2022/05/18 14:05:22;;;;;;;16.52;6.70;;;;;;;;;;5056891;28;20039;-63
2022/05/18 14:07:49;;;;;;;27.30;6.60;;;;;;;;;;5060462;28;20021;-62
2022/05/18 14:10:20;;;;;;;22.75;6.57;;;;;;;;;;5059576;28;20017;-63
2022/05/18 14:12:47;;;;;;;27.45;7.40;;;;;;;;;;5061609;28;20033;-62
2022/05/18 14:15:15;;;;;;;18.52;6.25;;;;;;;;;;5053777;28;20044;-64
2022/05/18 14:17:41;;;;;;;19.88;6.97;;;;;;;;;;5058985;28;20035;-62
2022/05/18 14:20:20;;;;;;;12.60;6.93;;;;;;;;;;5058008;28;20036;-62
2022/05/18 14:22:55;;;;;;;19.42;6.80;;;;;;;;;;5064040;28;20079;-63
2022/05/18 14:25:27;;;;;;;23.08;7.10;;;;;;;;;;5057594;28;20092;-63
2022/05/18 14:27:56;;;;;;;20.70;6.38;;;;;;;;;;5065518;28;20028;-62
2022/05/18 14:30:37;;;;;;;19.55;7.70;;;;;;;;;;5055781;28;20034;-63
2022/05/18 14:33:11;;;;;;;17.38;7.35;;;;;;;;;;5064827;28;20040;-62
2022/05/18 14:35:42;;;;;;;23.88;7.55;;;;;;;;;;5058019;28;20422;-63
2022/05/18 14:38:16;;;;;;;18.83;7.07;;;;;;;;;;5064269;28;20473;-62
2022/05/18 14:40:46;;;;;;;21.77;7.80;;;;;;;;;;5057340;28;20040;-63
2022/05/18 14:43:14;;;;;;;18.48;7.78;;;;;;;;;;5063754;28;20024;-63
2022/05/18 14:45:54;;;;;;;22.67;7.90;;;;;;;;;;5058691;28;20055;-62
2022/05/18 14:48:29;;;;;;;16.98;7.30;;;;;;;;;;5063528;28;20085;-62
2022/05/18 14:51:12;;;;;;;15.85;8.10;;;;;;;;;;5061706;28;20040;-62
2022/05/18 14:53:53;;;;;;;17.50;7.35;;;;;;;;;;5058622;28;20032;-61
2022/05/18 14:56:19;;;;;;;17.20;8.30;;;;;;;;;;5059619;28;20440;-62
2022/05/18 14:58:52;;;;;;;20.58;7.78;;;;;;;;;;5064073;28;20032;-62
2022/05/18 15:01:29;;;;;;;16.75;7.43;;;;;;;;;;5059940;28;20036;-63
2022/05/18 15:03:55;;;;;;;24.77;7.18;;;;;;;;;;5065330;28;20033;-62
2022/05/18 15:06:28;;;;;;;17.83;7.30;;;;;;;;;;5063052;28;20520;-62
2022/05/18 15:08:55;;;;;;;20.20;7.43;;;;;;;;;;5061742;28;20039;-63
2022/05/18 15:11:30;;;;;;;22.45;6.97;;;;;;;;;;5058253;28;20082;-62
2022/05/18 15:14:16;;;;;;;29.85;9.25;;;;;;;;;;5062238;28;20033;-62